Canadian Enterprise — VCJM — position and weather

sailwx.info

Track history (hours):
 
Tides and Currents Weather Stations Pressure Air Temp Water Temp Dewpoint Dewpoint Depression Visibility Wind Speed Wind Dir Waves Ship Positions

Canadian Enterprise

Last reported at 2018-Apr-20 23:00 UTC. Time now 2018-Apr-21 00:24 UTC.
Position N 42°24' W 080°12'.

Length 27 m; draft 4.2 m.

Type: Tug. MMSI: 314954697.

Wind from 260 at 14 knots

Barometer 1030.7 mb
Air temperature 4.4 ° C
Dewpoint 0.9 ° C

Date/timePositionNaut miles runAvg speedWind from/ knotsBaromVisibWave heightAir tempDewpointWater temp
2018-Apr-20 23:00N 42°24' W 080°12'1514.6 260 / 141030.7 4.4 0.9
2018-Apr-20 22:00N 42°18' W 080°30'9 8.9 250 / 171030.7 4.5 1.1
2018-Apr-20 21:00N 42°18' W 080°42'1110.7 250 / 151031.1 5.0 0.1
2018-Apr-20 20:00N 42°12' W 080°54'1514.6 250 / 131031.8 6.5 0.7
2018-Apr-20 19:00N 42°06' W 081°12'1313.4 250 / 121031.9 5.7 0.6
2018-Apr-20 18:00N 42°06' W 081°30'1515.0 230 / 91032.2 4.1 0.8
2018-Apr-20 17:00N 41°54' W 081°42'9 8.9 250 / 81032.5 4.2-2.0
2018-Apr-20 16:00N 41°54' W 081°54'1313.4 270 / 51032.3 3.3-0.1
2018-Apr-20 15:00N 41°54' W 082°12'1514.7 360 / 71032.1 3.3-0.5
2018-Apr-20 14:00N 41°48' W 082°30'1110.8 330 / 81032.0 3.9-1.5
2018-Apr-20 13:00N 41°54' W 082°42'9 8.9 340 / 141031.6 3.2-3.2
2018-Apr-20 12:00N 41°54' W 082°54'9 8.9 340 / 131031.0 3.5-3.6
2018-Apr-20 11:00N 41°54' W 083°06'1212.0 340 / 111030.3 3.2-4.1
2018-Apr-20 10:00N 42°06' W 083°06'6 6.0 340 / 71029.6 2.1-3.8
2018-Apr-20 09:00N 42°12' W 083°06'6 6.0 320 / 61029.0 2.0-4.0
2018-Apr-20 08:00N 42°18' W 083°06'1110.7 310 / 71028.2 3.6-4.2
2018-Apr-20 07:00N 42°24' W 082°54'1110.7 300 / 111027.6 3.7-2.9
2018-Apr-20 06:00N 42°30' W 082°42'7 7.5 330 / 121027.2 4.0-2.5
2018-Apr-20 05:00N 42°36' W 082°36'7 7.4 270 / 81027.0 2.6-1.2
2018-Apr-20 04:00N 42°42' W 082°30'1212.0 260 / 81004.6 0.9-4.2
2018-Apr-20 03:00N 42°54' W 082°30'7 7.4 210 / 51026.4 1.4-3.8
2018-Apr-20 02:00N 43°00' W 082°24'1212.0 230 / 71026.0 2.6-4.4
2018-Apr-20 01:00N 43°12' W 082°24'1212.0 310 / 61025.4 2.5-3.5
2018-Apr-20 00:00N 43°24' W 082°24'1312.8 290 / 71024.7 2.6-3.0
2018-Apr-19 23:00N 43°36' W 082°30'1212.0 310 / 71024.0 2.8-1.2
2018-Apr-19 22:00N 43°48' W 082°30'7 7.4 350 / 121023.6 3.8-2.7
2018-Apr-19 21:00N 43°54' W 082°36'1818.0 340 / 131023.1 3.8-3.5
2018-Apr-19 20:00N 44°12' W 082°36'1312.7 340 / 131022.8 3.8-2.2
2018-Apr-19 19:00N 44°24' W 082°42'7 7.4 330 / 171022.3 2.8-4.8
2018-Apr-19 18:00N 44°30' W 082°48'1312.7 340 / 201021.7 2.3-4.3
2018-Apr-19 17:00N 44°42' W 082°54'1212.0 330 / 201021.6 4.3-3.4
2018-Apr-19 16:00N 44°54' W 082°54'1514.7 330 / 201020.9 3.4-3.6
2018-Apr-19 15:00N 45°06' W 083°06'1312.7 330 / 211020.5 1.2-4.7
2018-Apr-19 14:00N 45°18' W 083°12'1514.7 340 / 241019.9 -1.8-6.3
2018-Apr-19 13:00N 45°30' W 083°24'4 7.3 350 / 241019.5 -1.7-7.0
2018-Apr-19 12:28N 45°33' W 083°28'612.0
2018-Apr-19 12:01N 45°37' W 083°33'611.9
2018-Apr-19 11:30N 45°42' W 083°38'713.2
2018-Apr-19 11:00N 45°48' W 083°42'1010.3 340 / 161018.4 -1.0-7.4
2018-Apr-19 10:00N 45°54' W 083°54'1312.7 340 / 121017.8 -0.3-7.1
2018-Apr-19 09:00N 46°06' W 084°00'7 7.3 350 / 181017.7 -0.3-7.8
2018-Apr-19 08:00N 46°12' W 084°06'4 4.2 330 / 12995.2 -0.3-7.8
2018-Apr-19 07:00N 46°12' W 084°12'6 6.0 350 / 71016.9 0.3-7.7
2018-Apr-19 06:00N 46°18' W 084°12'7 7.3 330 / 51016.6 0.8-6.8
2018-Apr-19 05:00N 46°24' W 084°18'7 7.3 350 / 91016.5 2.3-7.7
2018-Apr-19 04:00N 46°30' W 084°24'0 0.0 350 / 131015.6 3.5-7.8
2018-Apr-19 03:00N 46°30' W 084°24'4 4.1 350 / 101016.0 4.4-8.0
2018-Apr-19 02:00N 46°30' W 084°30'6 6.0 330 / 31015.7 3.0-5.8
2018-Apr-19 01:00N 46°24' W 084°30'7 7.3 300 / 131014.7 -0.2-0.3
2018-Apr-19 00:00N 46°30' W 084°36'0 0.0 310 / 221013.9 -0.2-0.3
2018-Apr-18 22:00N 46°30' W 084°36'0 0.0 040 / 181013.0 6.0-3.9
2018-Apr-18 21:00N 46°30' W 084°36'7 7.3 310 / 151013.1 3.3 0.6
2018-Apr-18 20:00N 46°36' W 084°42'7 7.3 330 / 201013.7 1.3 0.3
2018-Apr-18 19:00N 46°42' W 084°48'7 7.3 330 / 121014.7 2.9-1.2
2018-Apr-18 18:00N 46°48' W 084°54'6 6.0 330 / 191015.4 1.1-0.9
2018-Apr-18 17:00N 46°54' W 084°54'1514.5 350 / 161015.2 0.2-2.4
2018-Apr-18 16:00N 47°06' W 085°06'1212.0 010 / 141014.8 -0.0-3.4
2018-Apr-18 15:00N 47°18' W 085°06'5110.2 020 / 201014.4 -0.2-3.2
2018-Apr-18 10:00N 47°54' W 086°00'1414.4 020 / 221015.2 -1.0-1.2
2018-Apr-18 09:00N 48°06' W 086°12'1312.6 360 / 161015.6 -1.2-1.4
2018-Apr-18 08:00N 48°18' W 086°18'7010.0 010 / 151015.6 -0.9-1.2
2018-Apr-18 01:00N 48°36' W 088°00'17510.2 020 / 191014.3 1.9-1.3
2018-Apr-17 07:47N 46°59' W 091°37'311.4
2018-Apr-17 07:30N 46°57' W 091°40'611.4
2018-Apr-17 07:00N 46°53' W 091°46'2576.7
2018-Apr-17 07:00N 46°54' W 091°48'612.2 010 / 171015.6 -0.6-5.1
2018-Apr-17 06:30N 46°49' W 091°52'611.2
2018-Apr-17 06:00N 46°45' W 091°58'4270.7
2018-Apr-17 06:00N 46°42' W 091°54'5 8.2 010 / 251015.8 -0.3-5.0
2018-Apr-17 05:22N 46°42' W 092°01'1 2.6
2018-Apr-17 05:00N 46°42' W 092°00'111.4 320 / 211016.6 -0.8-5.0
2018-Apr-17 04:55N 46°42' W 092°01'0 0.1
2018-Apr-17 04:25N 46°42' W 092°01'1 1.8
2018-Apr-17 04:00N 46°42' W 092°00'1 6.6 320 / 181017.0 -0.5-5.1
2018-Apr-17 03:52N 46°42' W 092°01'0 0.0
2018-Apr-17 03:25N 46°42' W 092°01'1 1.8
2018-Apr-17 03:00N 46°42' W 092°00'111.4 310 / 71017.0 0.1-4.9
2018-Apr-17 02:55N 46°42' W 092°01'0 0.0
2018-Apr-17 02:28N 46°42' W 092°01'1 1.6
2018-Apr-17 02:00N 46°42' W 092°00'144.5 320 / 131016.9 -0.2-4.7
2018-Apr-17 01:58N 46°42' W 092°01'0 0.0
2018-Apr-17 01:28N 46°42' W 092°01'1 1.6
2018-Apr-17 01:00N 46°42' W 092°00'144.5 320 / 111016.4 0.4-3.8
2018-Apr-17 00:58N 46°42' W 092°01'0 0.0
2018-Apr-17 00:28N 46°42' W 092°01'1 1.6
2018-Apr-17 00:00N 46°42' W 092°00'144.5 320 / 151016.4 0.8-4.3
2018-Apr-16 23:58N 46°42' W 092°01'0 0.0
2018-Apr-16 23:28N 46°42' W 092°01'1 1.6
2018-Apr-16 23:00N 46°42' W 092°00'111.4 320 / 101016.2 0.7-3.9
2018-Apr-16 22:55N 46°42' W 092°01'0 0.0
2018-Apr-16 22:28N 46°42' W 092°01'1 1.6
2018-Apr-16 22:00N 46°42' W 092°00'144.6 320 / 61016.1 0.3-4.6
2018-Apr-16 21:58N 46°42' W 092°01'0 0.0
2018-Apr-16 21:28N 46°42' W 092°01'1 1.6
2018-Apr-16 21:00N 46°42' W 092°00'1 2.9 320 / 121016.4 -0.3-5.9
2018-Apr-16 20:43N 46°42' W 092°01'0 0.0
2018-Apr-16 20:28N 46°42' W 092°01'1 1.6
2018-Apr-16 20:00N 46°42' W 092°00'144.6 320 / 111016.9 -0.9-6.0
2018-Apr-16 19:58N 46°42' W 092°01'0 0.0
2018-Apr-16 19:29N 46°42' W 092°01'1 1.6
2018-Apr-16 19:00N 46°42' W 092°00'1 4.6 310 / 81017.3 -1.1-6.6
2018-Apr-16 18:49N 46°42' W 092°01'0 0.0
2018-Apr-16 18:16N 46°42' W 092°01'1 2.7
2018-Apr-16 18:00N 46°42' W 092°00'1 4.6 310 / 71017.8 -1.5-7.2
2018-Apr-16 17:49N 46°42' W 092°01'0 0.0
2018-Apr-16 17:22N 46°42' W 092°01'1 2.0
2018-Apr-16 17:00N 46°42' W 092°00'1 4.6 320 / 131018.3 -2.8-8.0
2018-Apr-16 16:49N 46°42' W 092°01'0 0.0
2018-Apr-16 16:22N 46°42' W 092°01'1 2.0
2018-Apr-16 16:00N 46°42' W 092°00'1 6.8 360 / 131018.1 -2.8-7.5
2018-Apr-16 15:52N 46°42' W 092°01'0 0.2
2018-Apr-16 15:22N 46°42' W 092°01'1 2.3
2018-Apr-16 15:00N 46°42' W 092°00'213.1 350 / 141018.5 -3.5-7.8
2018-Apr-16 14:52N 46°43' W 092°02'1 2.6
2018-Apr-16 14:24N 46°43' W 092°03'1 2.6
2018-Apr-16 14:00N 46°44' W 092°05'2147.3
2018-Apr-16 14:00N 46°42' W 092°06'3 4.7 350 / 231019.1 -4.0-7.4
2018-Apr-16 13:22N 46°45' W 092°05'3 8.4
2018-Apr-16 13:00N 46°48' W 092°06'320.7 360 / 211018.9 -4.3-6.0
2018-Apr-16 12:52N 46°45' W 092°06'0 0.0
2018-Apr-16 12:19N 46°45' W 092°06'3 8.3
2018-Apr-16 12:00N 46°48' W 092°06'314.9 010 / 171018.8 -4.3-6.0
2018-Apr-16 11:49N 46°45' W 092°06'0 0.0
2018-Apr-16 11:28N 46°45' W 092°06'3 5.6
2018-Apr-16 11:00N 46°48' W 092°06'333.8 360 / 231018.7 -4.1-5.2
2018-Apr-16 10:55N 46°45' W 092°06'0 0.0
2018-Apr-16 10:25N 46°45' W 092°06'3 6.3
2018-Apr-16 10:00N 46°48' W 092°06'332.2 360 / 221018.7 -3.8-5.1
2018-Apr-16 09:55N 46°45' W 092°06'0 0.2
2018-Apr-16 09:28N 46°46' W 092°06'0 0.0
2018-Apr-16 08:55N 46°46' W 092°06'0 0.0
2018-Apr-16 08:25N 46°46' W 092°06'0 0.0
2018-Apr-16 07:55N 46°46' W 092°06'0 0.0
2018-Apr-16 07:28N 46°46' W 092°06'0 0.0
2018-Apr-16 06:58N 46°46' W 092°06'0 0.0
2018-Apr-16 06:25N 46°46' W 092°06'0 0.0
2018-Apr-16 05:58N 46°46' W 092°06'0 0.0
2018-Apr-16 05:25N 46°46' W 092°06'0 0.0
2018-Apr-16 04:58N 46°46' W 092°06'0 0.0
2018-Apr-16 04:25N 46°46' W 092°06'0 0.0
2018-Apr-16 03:55N 46°46' W 092°06'0 0.0
2018-Apr-16 03:28N 46°46' W 092°06'0 0.0
2018-Apr-16 02:58N 46°46' W 092°06'0 0.0
2018-Apr-16 02:28N 46°46' W 092°06'0 0.0
2018-Apr-16 01:58N 46°46' W 092°06'0 0.0
2018-Apr-16 01:04N 46°46' W 092°06'0 0.0
2018-Apr-16 00:52N 46°46' W 092°06'0 0.0
2018-Apr-16 00:25N 46°46' W 092°06'0 0.0
2018-Apr-15 23:55N 46°46' W 092°06'0 0.0
2018-Apr-15 23:22N 46°46' W 092°06'0 0.0
2018-Apr-15 22:49N 46°46' W 092°06'0 0.0
2018-Apr-15 22:28N 46°46' W 092°06'0 0.0
2018-Apr-15 21:52N 46°46' W 092°06'0 0.0
2018-Apr-15 21:22N 46°46' W 092°06'0 0.0
2018-Apr-15 20:55N 46°46' W 092°06'0 0.0
2018-Apr-15 20:25N 46°46' W 092°06'0 0.0
2018-Apr-15 19:55N 46°46' W 092°06'0 0.0
2018-Apr-15 19:19N 46°46' W 092°06'0 0.0
2018-Apr-15 18:49N 46°46' W 092°06'0 0.0
2018-Apr-15 18:28N 46°46' W 092°06'0 0.0
2018-Apr-15 17:58N 46°46' W 092°06'0 0.0
2018-Apr-15 17:28N 46°46' W 092°06'0 0.0
2018-Apr-15 16:58N 46°46' W 092°06'0 0.0
2018-Apr-15 16:28N 46°46' W 092°06'0 0.0
2018-Apr-15 15:58N 46°46' W 092°06'0 0.0
2018-Apr-15 15:28N 46°46' W 092°06'0 0.0
2018-Apr-15 14:58N 46°46' W 092°06'0 0.0
2018-Apr-15 14:28N 46°46' W 092°06'0 0.0
2018-Apr-15 13:46N 46°46' W 092°06'0 0.0
2018-Apr-15 13:28N 46°46' W 092°06'0 0.0
2018-Apr-15 12:58N 46°46' W 092°06'0 0.0
2018-Apr-15 12:28N 46°46' W 092°06'0 0.0
2018-Apr-15 11:58N 46°46' W 092°06'0 0.0
2018-Apr-15 11:28N 46°46' W 092°06'0 0.0
2018-Apr-15 10:58N 46°46' W 092°06'0 0.0
2018-Apr-15 10:22N 46°46' W 092°06'0 0.0
2018-Apr-15 09:52N 46°46' W 092°06'0 0.0
2018-Apr-15 09:22N 46°46' W 092°06'0 0.0
2018-Apr-15 08:58N 46°46' W 092°06'0 0.0
2018-Apr-15 08:25N 46°46' W 092°06'0 0.0
2018-Apr-15 07:52N 46°46' W 092°06'0 0.0
2018-Apr-15 07:28N 46°46' W 092°06'0 0.0
2018-Apr-15 06:55N 46°46' W 092°06'0 0.0
2018-Apr-15 06:22N 46°46' W 092°06'0 0.0
2018-Apr-15 05:55N 46°46' W 092°06'0 0.0
2018-Apr-15 05:10N 46°46' W 092°06'0 0.0
2018-Apr-15 04:58N 46°46' W 092°06'0 0.0
2018-Apr-15 04:28N 46°46' W 092°06'0 0.0
2018-Apr-15 03:55N 46°46' W 092°06'0 0.0
2018-Apr-15 03:28N 46°46' W 092°06'0 0.0
2018-Apr-15 02:58N 46°46' W 092°06'0 0.0
2018-Apr-15 02:28N 46°46' W 092°06'0 0.0
2018-Apr-15 01:58N 46°46' W 092°06'0 0.0
2018-Apr-15 01:28N 46°46' W 092°06'0 0.0
2018-Apr-15 00:58N 46°46' W 092°06'0 0.0
2018-Apr-15 00:25N 46°46' W 092°06'0 0.0
2018-Apr-14 23:58N 46°46' W 092°06'0 0.0
2018-Apr-14 23:28N 46°46' W 092°06'0 0.0
2018-Apr-14 22:58N 46°46' W 092°06'0 0.0
2018-Apr-14 22:25N 46°46' W 092°06'0 0.0
2018-Apr-14 21:58N 46°46' W 092°06'0 0.0
2018-Apr-14 21:25N 46°46' W 092°06'0 0.0
2018-Apr-14 20:34N 46°46' W 092°06'0 0.0
2018-Apr-14 20:19N 46°46' W 092°06'0 0.0
2018-Apr-14 19:52N 46°46' W 092°06'0 0.0
2018-Apr-14 19:22N 46°46' W 092°06'0 0.0
2018-Apr-14 18:55N 46°46' W 092°06'0 0.0
2018-Apr-14 18:25N 46°46' W 092°06'0 0.0
2018-Apr-14 17:43N 46°46' W 092°06'0 0.0
2018-Apr-14 17:19N 46°46' W 092°06'0 0.0
2018-Apr-14 16:55N 46°46' W 092°06'0 0.0
2018-Apr-14 16:25N 46°46' W 092°06'0 0.0
2018-Apr-14 16:00N 46°46' W 092°06'0 0.0
2018-Apr-14 15:31N 46°46' W 092°06'0 0.0
2018-Apr-14 15:00N 46°46' W 092°06'0 0.0
2018-Apr-14 14:30N 46°46' W 092°06'0 0.0
2018-Apr-14 14:00N 46°46' W 092°06'0 0.0
2018-Apr-14 13:30N 46°46' W 092°06'0 0.0
2018-Apr-14 13:00N 46°46' W 092°06'0 0.0
2018-Apr-14 12:30N 46°46' W 092°06'0 0.0
2018-Apr-14 12:00N 46°46' W 092°06'0 0.0
2018-Apr-14 11:30N 46°46' W 092°06'0 0.0
2018-Apr-14 11:00N 46°46' W 092°06'0 0.0
2018-Apr-14 10:30N 46°46' W 092°06'0 0.0
2018-Apr-14 10:00N 46°46' W 092°06'0 0.0
2018-Apr-14 09:31N 46°46' W 092°06'0 0.0
2018-Apr-14 09:00N 46°46' W 092°06'0 0.0
2018-Apr-14 08:30N 46°46' W 092°06'0 0.0
2018-Apr-14 08:00N 46°46' W 092°06'0 0.0
2018-Apr-14 07:30N 46°46' W 092°06'0 0.0
2018-Apr-14 07:00N 46°46' W 092°06'0 0.0
2018-Apr-14 06:31N 46°46' W 092°06'0 0.0
2018-Apr-14 06:00N 46°46' W 092°06'0 0.0
2018-Apr-14 05:30N 46°46' W 092°06'0 0.0
2018-Apr-14 05:00N 46°46' W 092°06'0 0.0
2018-Apr-14 04:30N 46°46' W 092°06'0 0.0
2018-Apr-14 04:00N 46°46' W 092°06'0 0.0
2018-Apr-14 03:30N 46°46' W 092°06'0 0.0
2018-Apr-14 02:59N 46°46' W 092°06'0 0.0
2018-Apr-14 02:31N 46°46' W 092°06'0 0.0
2018-Apr-14 02:00N 46°46' W 092°06'0 0.0
2018-Apr-14 01:30N 46°46' W 092°06'0 0.0
2018-Apr-14 01:00N 46°46' W 092°06'0 0.0
2018-Apr-14 00:29N 46°46' W 092°06'0 0.0
2018-Apr-14 00:00N 46°46' W 092°06'0 0.0
2018-Apr-13 23:30N 46°46' W 092°06'0 0.0
2018-Apr-13 23:00N 46°46' W 092°06'0 0.0
2018-Apr-13 22:30N 46°46' W 092°06'0 0.0
2018-Apr-13 22:00N 46°46' W 092°06'0 0.0
2018-Apr-13 21:30N 46°46' W 092°06'0 0.0
2018-Apr-13 20:59N 46°46' W 092°06'0 0.0
2018-Apr-13 20:30N 46°46' W 092°06'0 0.0
2018-Apr-13 20:00N 46°46' W 092°06'0 0.0
2018-Apr-13 19:30N 46°46' W 092°06'0 0.0
2018-Apr-13 18:59N 46°46' W 092°06'0 0.0
2018-Apr-13 18:27N 46°46' W 092°06'0 0.0
2018-Apr-13 18:00N 46°46' W 092°06'0 0.0
2018-Apr-13 17:30N 46°46' W 092°06'0 0.0
2018-Apr-13 17:00N 46°46' W 092°06'0 0.0
2018-Apr-13 16:30N 46°46' W 092°06'0 0.0
2018-Apr-13 16:00N 46°46' W 092°06'0 0.0
2018-Apr-13 15:30N 46°46' W 092°06'0 0.0
2018-Apr-13 15:00N 46°46' W 092°06'0 0.0
2018-Apr-13 14:30N 46°46' W 092°06'0 0.0
2018-Apr-13 14:00N 46°46' W 092°06'2266.7
2018-Apr-13 14:00N 46°48' W 092°06'2 5.0 050 / 241016.2 1.2-6.7
2018-Apr-13 13:30N 46°46' W 092°06'0 0.0
2018-Apr-13 13:01N 46°46' W 092°06'2141.9
2018-Apr-13 13:00N 46°48' W 092°06'2 3.7 040 / 151015.9 1.2-8.0
2018-Apr-13 12:30N 46°46' W 092°06'2 4.8
2018-Apr-13 12:00N 46°47' W 092°03'2220.9
2018-Apr-13 12:00N 46°48' W 092°06'713.5 060 / 81015.2 1.7-6.4
2018-Apr-13 11:30N 46°49' W 091°57'612.6
2018-Apr-13 11:00N 46°52' W 091°48'2214.4
2018-Apr-13 11:00N 46°54' W 091°48'612.1 070 / 131013.9 1.1-3.6
2018-Apr-13 10:30N 46°54' W 091°39'612.7
2018-Apr-13 10:00N 46°56' W 091°31'2767.3
2018-Apr-13 10:00N 46°54' W 091°30'714.4 060 / 141013.0 2.1-4.0
2018-Apr-13 09:30N 46°59' W 091°22'713.9
2018-Apr-13 09:00N 47°00' W 091°12'1413.7 040 / 151012.4 1.9-3.7
2018-Apr-13 08:00N 47°06' W 090°54'1413.6 040 / 111012.9 1.6 1.3
2018-Apr-13 07:00N 47°12' W 090°36'13111.9 350 / 121012.5 2.0 1.9
2018-Apr-12 20:00N 47°24' W 087°24'1212.2 330 / 181007.5 0.9 1.0
2018-Apr-12 19:00N 47°24' W 087°06'1010.1 340 / 121007.5 0.3 0.5
2018-Apr-12 18:00N 47°18' W 086°54'1413.6 060 / 61006.9 0.5 0.6
2018-Apr-12 17:00N 47°12' W 086°36'2512.6 030 / 111006.6 0.4 0.6
2018-Apr-12 15:00N 47°06' W 086°00'1717.2 030 / 111005.9 -0.7-0.6
2018-Apr-12 14:00N 46°54' W 085°42'1212.3 110 / 41006.0 -0.6-0.6
2018-Apr-12 13:00N 46°54' W 085°24'8 8.2 120 / 121006.3 -0.3-0.5
2018-Apr-12 12:00N 46°54' W 085°12'1413.7 120 / 141007.2 -0.2-0.5
2018-Apr-12 11:00N 46°48' W 084°54'7 7.3 130 / 81008.4 0.4 0.1
2018-Apr-12 10:00N 46°42' W 084°48'7 7.3 140 / 91009.1 0.3-0.9
2018-Apr-12 09:00N 46°36' W 084°42'1514.6 140 / 131010.9 0.8-1.9
2018-Apr-12 08:00N 46°24' W 084°30'7 7.3 100 / 71012.4 -2.7-2.9
2018-Apr-12 07:00N 46°30' W 084°24'4 4.1 100 / 31011.8 -2.5-2.7
2018-Apr-12 06:00N 46°30' W 084°18'0 0.0 110 / 11012.8 -2.1-2.2
2018-Apr-12 05:00N 46°30' W 084°18'0 0.0 090 / 31013.5 -1.1-1.3
2018-Apr-12 04:00N 46°30' W 084°18'7 7.3 130 / 31014.5 -0.9-1.6
2018-Apr-12 03:00N 46°24' W 084°12'0 0.0 350 / 41014.1 0.3-4.0
2018-Apr-12 01:00N 46°24' W 084°12'7 7.3 190 / 51013.8 1.6-4.6
2018-Apr-12 00:00N 46°18' W 084°06'6 6.0 010 / 31013.4 3.2-4.1
2018-Apr-11 23:00N 46°12' W 084°06'22 7.3 350 / 151013.4 3.9-4.8
2018-Apr-11 20:00N 45°54' W 083°48'914.4 330 / 201012.6 2.7 1.7
2018-Apr-11 19:22N 45°46' W 083°42'512.0
2018-Apr-11 19:00N 45°43' W 083°38'611.4
2018-Apr-11 18:30N 45°39' W 083°32'510.3
2018-Apr-11 17:59N 45°35' W 083°26'3712.4
2018-Apr-11 15:00N 45°06' W 082°54'1212.0 210 / 141012.6 1.3 1.1
2018-Apr-11 14:00N 44°54' W 082°54'1212.0 200 / 161013.3 1.4 0.9
2018-Apr-11 13:00N 44°42' W 082°54'1312.7 200 / 111014.2 1.5 1.3
2018-Apr-11 12:00N 44°30' W 082°48'1312.7 220 / 151014.6 1.6 1.3
2018-Apr-11 11:00N 44°18' W 082°42'1312.7 200 / 141015.0 1.7-1.5
2018-Apr-11 10:00N 44°06' W 082°36'1312.8 220 / 181015.6 2.0-3.2
2018-Apr-11 09:00N 43°54' W 082°30'1212.0 200 / 151016.7 1.7-3.6
2018-Apr-11 08:00N 43°42' W 082°30'1212.0 200 / 111017.4 1.3-3.6
2018-Apr-11 07:00N 43°30' W 082°30'1312.8 230 / 121018.8 1.6-4.9
2018-Apr-11 06:00N 43°18' W 082°24'1212.0 230 / 101019.6 2.1-3.9
2018-Apr-11 05:00N 43°06' W 082°24'1212.0 230 / 101019.9 2.5-3.8
2018-Apr-11 04:00N 42°54' W 082°24'19 9.3 210 / 101020.2 3.6-3.0
2018-Apr-11 02:00N 42°36' W 082°30'7 7.5 200 / 101020.5 4.2-1.5
2018-Apr-11 01:00N 42°30' W 082°36'1110.7 210 / 111020.3 4.6 0.4
2018-Apr-11 00:00N 42°24' W 082°48'7 7.5 230 / 101020.5 5.8-3.3
2018-Apr-10 23:00N 42°18' W 082°54'   260 / 101020.8 8.3-6.3
Track history (hours):
 
Tides and Currents Weather Stations Pressure Air Temp Water Temp Dewpoint Dewpoint Depression Visibility Wind Speed Wind Dir Waves Ship Positions

Canadian Enterprise

Last reported at 2018-Apr-20 23:00 UTC. Time now 2018-Apr-21 00:24 UTC.
Position N 42°24' W 080°12'.

Length 27 m; draft 4.2 m.

Type: Tug. MMSI: 314954697.

Wind from 260 at 14 knots

Barometer 1030.7 mb
Air temperature 4.4 ° C
Dewpoint 0.9 ° C

Date/timePositionNaut miles runAvg speedWind from/ knotsBaromVisibWave heightAir tempDewpointWater temp
2018-Apr-20 23:00N 42°24' W 080°12'1514.6 260 / 141030.7 4.4 0.9
2018-Apr-20 22:00N 42°18' W 080°30'9 8.9 250 / 171030.7 4.5 1.1
2018-Apr-20 21:00N 42°18' W 080°42'1110.7 250 / 151031.1 5.0 0.1
2018-Apr-20 20:00N 42°12' W 080°54'1514.6 250 / 131031.8 6.5 0.7
2018-Apr-20 19:00N 42°06' W 081°12'1313.4 250 / 121031.9 5.7 0.6
2018-Apr-20 18:00N 42°06' W 081°30'1515.0 230 / 91032.2 4.1 0.8
2018-Apr-20 17:00N 41°54' W 081°42'9 8.9 250 / 81032.5 4.2-2.0
2018-Apr-20 16:00N 41°54' W 081°54'1313.4 270 / 51032.3 3.3-0.1
2018-Apr-20 15:00N 41°54' W 082°12'1514.7 360 / 71032.1 3.3-0.5
2018-Apr-20 14:00N 41°48' W 082°30'1110.8 330 / 81032.0 3.9-1.5
2018-Apr-20 13:00N 41°54' W 082°42'9 8.9 340 / 141031.6 3.2-3.2
2018-Apr-20 12:00N 41°54' W 082°54'9 8.9 340 / 131031.0 3.5-3.6
2018-Apr-20 11:00N 41°54' W 083°06'1212.0 340 / 111030.3 3.2-4.1
2018-Apr-20 10:00N 42°06' W 083°06'6 6.0 340 / 71029.6 2.1-3.8
2018-Apr-20 09:00N 42°12' W 083°06'6 6.0 320 / 61029.0 2.0-4.0
2018-Apr-20 08:00N 42°18' W 083°06'1110.7 310 / 71028.2 3.6-4.2
2018-Apr-20 07:00N 42°24' W 082°54'1110.7 300 / 111027.6 3.7-2.9
2018-Apr-20 06:00N 42°30' W 082°42'7 7.5 330 / 121027.2 4.0-2.5
2018-Apr-20 05:00N 42°36' W 082°36'7 7.4 270 / 81027.0 2.6-1.2
2018-Apr-20 04:00N 42°42' W 082°30'1212.0 260 / 81004.6 0.9-4.2
2018-Apr-20 03:00N 42°54' W 082°30'7 7.4 210 / 51026.4 1.4-3.8
2018-Apr-20 02:00N 43°00' W 082°24'1212.0 230 / 71026.0 2.6-4.4
2018-Apr-20 01:00N 43°12' W 082°24'1212.0 310 / 61025.4 2.5-3.5
2018-Apr-20 00:00N 43°24' W 082°24'1312.8 290 / 71024.7 2.6-3.0
2018-Apr-19 23:00N 43°36' W 082°30'1212.0 310 / 71024.0 2.8-1.2
2018-Apr-19 22:00N 43°48' W 082°30'7 7.4 350 / 121023.6 3.8-2.7
2018-Apr-19 21:00N 43°54' W 082°36'1818.0 340 / 131023.1 3.8-3.5
2018-Apr-19 20:00N 44°12' W 082°36'1312.7 340 / 131022.8 3.8-2.2
2018-Apr-19 19:00N 44°24' W 082°42'7 7.4 330 / 171022.3 2.8-4.8
2018-Apr-19 18:00N 44°30' W 082°48'1312.7 340 / 201021.7 2.3-4.3
2018-Apr-19 17:00N 44°42' W 082°54'1212.0 330 / 201021.6 4.3-3.4
2018-Apr-19 16:00N 44°54' W 082°54'1514.7 330 / 201020.9 3.4-3.6
2018-Apr-19 15:00N 45°06' W 083°06'1312.7 330 / 211020.5 1.2-4.7
2018-Apr-19 14:00N 45°18' W 083°12'1514.7 340 / 241019.9 -1.8-6.3
2018-Apr-19 13:00N 45°30' W 083°24'4 7.3 350 / 241019.5 -1.7-7.0
2018-Apr-19 12:28N 45°33' W 083°28'612.0
2018-Apr-19 12:01N 45°37' W 083°33'611.9
2018-Apr-19 11:30N 45°42' W 083°38'713.2
2018-Apr-19 11:00N 45°48' W 083°42'1010.3 340 / 161018.4 -1.0-7.4
2018-Apr-19 10:00N 45°54' W 083°54'1312.7 340 / 121017.8 -0.3-7.1
2018-Apr-19 09:00N 46°06' W 084°00'7 7.3 350 / 181017.7 -0.3-7.8
2018-Apr-19 08:00N 46°12' W 084°06'4 4.2 330 / 12995.2 -0.3-7.8
2018-Apr-19 07:00N 46°12' W 084°12'6 6.0 350 / 71016.9 0.3-7.7
2018-Apr-19 06:00N 46°18' W 084°12'7 7.3 330 / 51016.6 0.8-6.8
2018-Apr-19 05:00N 46°24' W 084°18'7 7.3 350 / 91016.5 2.3-7.7
2018-Apr-19 04:00N 46°30' W 084°24'0 0.0 350 / 131015.6 3.5-7.8
2018-Apr-19 03:00N 46°30' W 084°24'4 4.1 350 / 101016.0 4.4-8.0
2018-Apr-19 02:00N 46°30' W 084°30'6 6.0 330 / 31015.7 3.0-5.8
2018-Apr-19 01:00N 46°24' W 084°30'7 7.3 300 / 131014.7 -0.2-0.3
2018-Apr-19 00:00N 46°30' W 084°36'0 0.0 310 / 221013.9 -0.2-0.3
2018-Apr-18 22:00N 46°30' W 084°36'0 0.0 040 / 181013.0 6.0-3.9
2018-Apr-18 21:00N 46°30' W 084°36'7 7.3 310 / 151013.1 3.3 0.6
2018-Apr-18 20:00N 46°36' W 084°42'7 7.3 330 / 201013.7 1.3 0.3
2018-Apr-18 19:00N 46°42' W 084°48'7 7.3 330 / 121014.7 2.9-1.2
2018-Apr-18 18:00N 46°48' W 084°54'6 6.0 330 / 191015.4 1.1-0.9
2018-Apr-18 17:00N 46°54' W 084°54'1514.5 350 / 161015.2 0.2-2.4
2018-Apr-18 16:00N 47°06' W 085°06'1212.0 010 / 141014.8 -0.0-3.4
2018-Apr-18 15:00N 47°18' W 085°06'5110.2 020 / 201014.4 -0.2-3.2
2018-Apr-18 10:00N 47°54' W 086°00'1414.4 020 / 221015.2 -1.0-1.2
2018-Apr-18 09:00N 48°06' W 086°12'1312.6 360 / 161015.6 -1.2-1.4
2018-Apr-18 08:00N 48°18' W 086°18'7010.0 010 / 151015.6 -0.9-1.2
2018-Apr-18 01:00N 48°36' W 088°00'17510.2 020 / 191014.3 1.9-1.3
2018-Apr-17 07:47N 46°59' W 091°37'311.4
2018-Apr-17 07:30N 46°57' W 091°40'611.4
2018-Apr-17 07:00N 46°53' W 091°46'2576.7
2018-Apr-17 07:00N 46°54' W 091°48'612.2 010 / 171015.6 -0.6-5.1
2018-Apr-17 06:30N 46°49' W 091°52'611.2
2018-Apr-17 06:00N 46°45' W 091°58'4270.7
2018-Apr-17 06:00N 46°42' W 091°54'5 8.2 010 / 251015.8 -0.3-5.0
2018-Apr-17 05:22N 46°42' W 092°01'1 2.6
2018-Apr-17 05:00N 46°42' W 092°00'111.4 320 / 211016.6 -0.8-5.0
2018-Apr-17 04:55N 46°42' W 092°01'0 0.1
2018-Apr-17 04:25N 46°42' W 092°01'1 1.8
2018-Apr-17 04:00N 46°42' W 092°00'1 6.6 320 / 181017.0 -0.5-5.1
2018-Apr-17 03:52N 46°42' W 092°01'0 0.0
2018-Apr-17 03:25N 46°42' W 092°01'1 1.8
2018-Apr-17 03:00N 46°42' W 092°00'111.4 310 / 71017.0 0.1-4.9
2018-Apr-17 02:55N 46°42' W 092°01'0 0.0
2018-Apr-17 02:28N 46°42' W 092°01'1 1.6
2018-Apr-17 02:00N 46°42' W 092°00'144.5 320 / 131016.9 -0.2-4.7
2018-Apr-17 01:58N 46°42' W 092°01'0 0.0
2018-Apr-17 01:28N 46°42' W 092°01'1 1.6
2018-Apr-17 01:00N 46°42' W 092°00'144.5 320 / 111016.4 0.4-3.8
2018-Apr-17 00:58N 46°42' W 092°01'0 0.0
2018-Apr-17 00:28N 46°42' W 092°01'1 1.6
2018-Apr-17 00:00N 46°42' W 092°00'144.5 320 / 151016.4 0.8-4.3
2018-Apr-16 23:58N 46°42' W 092°01'0 0.0
2018-Apr-16 23:28N 46°42' W 092°01'1 1.6
2018-Apr-16 23:00N 46°42' W 092°00'111.4 320 / 101016.2 0.7-3.9
2018-Apr-16 22:55N 46°42' W 092°01'0 0.0
2018-Apr-16 22:28N 46°42' W 092°01'1 1.6
2018-Apr-16 22:00N 46°42' W 092°00'144.6 320 / 61016.1 0.3-4.6
2018-Apr-16 21:58N 46°42' W 092°01'0 0.0
2018-Apr-16 21:28N 46°42' W 092°01'1 1.6
2018-Apr-16 21:00N 46°42' W 092°00'1 2.9 320 / 121016.4 -0.3-5.9
2018-Apr-16 20:43N 46°42' W 092°01'0 0.0
2018-Apr-16 20:28N 46°42' W 092°01'1 1.6
2018-Apr-16 20:00N 46°42' W 092°00'144.6 320 / 111016.9 -0.9-6.0
2018-Apr-16 19:58N 46°42' W 092°01'0 0.0
2018-Apr-16 19:29N 46°42' W 092°01'1 1.6
2018-Apr-16 19:00N 46°42' W 092°00'1 4.6 310 / 81017.3 -1.1-6.6
2018-Apr-16 18:49N 46°42' W 092°01'0 0.0
2018-Apr-16 18:16N 46°42' W 092°01'1 2.7
2018-Apr-16 18:00N 46°42' W 092°00'1 4.6 310 / 71017.8 -1.5-7.2
2018-Apr-16 17:49N 46°42' W 092°01'0 0.0
2018-Apr-16 17:22N 46°42' W 092°01'1 2.0
2018-Apr-16 17:00N 46°42' W 092°00'1 4.6 320 / 131018.3 -2.8-8.0
2018-Apr-16 16:49N 46°42' W 092°01'0 0.0
2018-Apr-16 16:22N 46°42' W 092°01'1 2.0
2018-Apr-16 16:00N 46°42' W 092°00'1 6.8 360 / 131018.1 -2.8-7.5
2018-Apr-16 15:52N 46°42' W 092°01'0 0.2
2018-Apr-16 15:22N 46°42' W 092°01'1 2.3
2018-Apr-16 15:00N 46°42' W 092°00'213.1 350 / 141018.5 -3.5-7.8
2018-Apr-16 14:52N 46°43' W 092°02'1 2.6
2018-Apr-16 14:24N 46°43' W 092°03'1 2.6
2018-Apr-16 14:00N 46°44' W 092°05'2147.3
2018-Apr-16 14:00N 46°42' W 092°06'3 4.7 350 / 231019.1 -4.0-7.4
2018-Apr-16 13:22N 46°45' W 092°05'3 8.4
2018-Apr-16 13:00N 46°48' W 092°06'320.7 360 / 211018.9 -4.3-6.0
2018-Apr-16 12:52N 46°45' W 092°06'0 0.0
2018-Apr-16 12:19N 46°45' W 092°06'3 8.3
2018-Apr-16 12:00N 46°48' W 092°06'314.9 010 / 171018.8 -4.3-6.0
2018-Apr-16 11:49N 46°45' W 092°06'0 0.0
2018-Apr-16 11:28N 46°45' W 092°06'3 5.6
2018-Apr-16 11:00N 46°48' W 092°06'333.8 360 / 231018.7 -4.1-5.2
2018-Apr-16 10:55N 46°45' W 092°06'0 0.0
2018-Apr-16 10:25N 46°45' W 092°06'3 6.3
2018-Apr-16 10:00N 46°48' W 092°06'332.2 360 / 221018.7 -3.8-5.1
2018-Apr-16 09:55N 46°45' W 092°06'0 0.2
2018-Apr-16 09:28N 46°46' W 092°06'0 0.0
2018-Apr-16 08:55N 46°46' W 092°06'0 0.0
2018-Apr-16 08:25N 46°46' W 092°06'0 0.0
2018-Apr-16 07:55N 46°46' W 092°06'0 0.0
2018-Apr-16 07:28N 46°46' W 092°06'0 0.0
2018-Apr-16 06:58N 46°46' W 092°06'0 0.0
2018-Apr-16 06:25N 46°46' W 092°06'0 0.0
2018-Apr-16 05:58N 46°46' W 092°06'0 0.0
2018-Apr-16 05:25N 46°46' W 092°06'0 0.0
2018-Apr-16 04:58N 46°46' W 092°06'0 0.0
2018-Apr-16 04:25N 46°46' W 092°06'0 0.0
2018-Apr-16 03:55N 46°46' W 092°06'0 0.0
2018-Apr-16 03:28N 46°46' W 092°06'0 0.0
2018-Apr-16 02:58N 46°46' W 092°06'0 0.0
2018-Apr-16 02:28N 46°46' W 092°06'0 0.0
2018-Apr-16 01:58N 46°46' W 092°06'0 0.0
2018-Apr-16 01:04N 46°46' W 092°06'0 0.0
2018-Apr-16 00:52N 46°46' W 092°06'0 0.0
2018-Apr-16 00:25N 46°46' W 092°06'0 0.0
2018-Apr-15 23:55N 46°46' W 092°06'0 0.0
2018-Apr-15 23:22N 46°46' W 092°06'0 0.0
2018-Apr-15 22:49N 46°46' W 092°06'0 0.0
2018-Apr-15 22:28N 46°46' W 092°06'0 0.0
2018-Apr-15 21:52N 46°46' W 092°06'0 0.0
2018-Apr-15 21:22N 46°46' W 092°06'0 0.0
2018-Apr-15 20:55N 46°46' W 092°06'0 0.0
2018-Apr-15 20:25N 46°46' W 092°06'0 0.0
2018-Apr-15 19:55N 46°46' W 092°06'0 0.0
2018-Apr-15 19:19N 46°46' W 092°06'0 0.0
2018-Apr-15 18:49N 46°46' W 092°06'0 0.0
2018-Apr-15 18:28N 46°46' W 092°06'0 0.0
2018-Apr-15 17:58N 46°46' W 092°06'0 0.0
2018-Apr-15 17:28N 46°46' W 092°06'0 0.0
2018-Apr-15 16:58N 46°46' W 092°06'0 0.0
2018-Apr-15 16:28N 46°46' W 092°06'0 0.0
2018-Apr-15 15:58N 46°46' W 092°06'0 0.0
2018-Apr-15 15:28N 46°46' W 092°06'0 0.0
2018-Apr-15 14:58N 46°46' W 092°06'0 0.0
2018-Apr-15 14:28N 46°46' W 092°06'0 0.0
2018-Apr-15 13:46N 46°46' W 092°06'0 0.0
2018-Apr-15 13:28N 46°46' W 092°06'0 0.0
2018-Apr-15 12:58N 46°46' W 092°06'0 0.0
2018-Apr-15 12:28N 46°46' W 092°06'0 0.0
2018-Apr-15 11:58N 46°46' W 092°06'0 0.0
2018-Apr-15 11:28N 46°46' W 092°06'0 0.0
2018-Apr-15 10:58N 46°46' W 092°06'0 0.0
2018-Apr-15 10:22N 46°46' W 092°06'0 0.0
2018-Apr-15 09:52N 46°46' W 092°06'0 0.0
2018-Apr-15 09:22N 46°46' W 092°06'0 0.0
2018-Apr-15 08:58N 46°46' W 092°06'0 0.0
2018-Apr-15 08:25N 46°46' W 092°06'0 0.0
2018-Apr-15 07:52N 46°46' W 092°06'0 0.0
2018-Apr-15 07:28N 46°46' W 092°06'0 0.0
2018-Apr-15 06:55N 46°46' W 092°06'0 0.0
2018-Apr-15 06:22N 46°46' W 092°06'0 0.0
2018-Apr-15 05:55N 46°46' W 092°06'0 0.0
2018-Apr-15 05:10N 46°46' W 092°06'0 0.0
2018-Apr-15 04:58N 46°46' W 092°06'0 0.0
2018-Apr-15 04:28N 46°46' W 092°06'0 0.0
2018-Apr-15 03:55N 46°46' W 092°06'0 0.0
2018-Apr-15 03:28N 46°46' W 092°06'0 0.0
2018-Apr-15 02:58N 46°46' W 092°06'0 0.0
2018-Apr-15 02:28N 46°46' W 092°06'0 0.0
2018-Apr-15 01:58N 46°46' W 092°06'0 0.0
2018-Apr-15 01:28N 46°46' W 092°06'0 0.0
2018-Apr-15 00:58N 46°46' W 092°06'0 0.0
2018-Apr-15 00:25N 46°46' W 092°06'0 0.0
2018-Apr-14 23:58N 46°46' W 092°06'0 0.0
2018-Apr-14 23:28N 46°46' W 092°06'0 0.0
2018-Apr-14 22:58N 46°46' W 092°06'0 0.0
2018-Apr-14 22:25N 46°46' W 092°06'0 0.0
2018-Apr-14 21:58N 46°46' W 092°06'0 0.0
2018-Apr-14 21:25N 46°46' W 092°06'0 0.0
2018-Apr-14 20:34N 46°46' W 092°06'0 0.0
2018-Apr-14 20:19N 46°46' W 092°06'0 0.0
2018-Apr-14 19:52N 46°46' W 092°06'0 0.0
2018-Apr-14 19:22N 46°46' W 092°06'0 0.0
2018-Apr-14 18:55N 46°46' W 092°06'0 0.0
2018-Apr-14 18:25N 46°46' W 092°06'0 0.0
2018-Apr-14 17:43N 46°46' W 092°06'0 0.0
2018-Apr-14 17:19N 46°46' W 092°06'0 0.0
2018-Apr-14 16:55N 46°46' W 092°06'0 0.0
2018-Apr-14 16:25N 46°46' W 092°06'0 0.0
2018-Apr-14 16:00N 46°46' W 092°06'0 0.0
2018-Apr-14 15:31N 46°46' W 092°06'0 0.0
2018-Apr-14 15:00N 46°46' W 092°06'0 0.0
2018-Apr-14 14:30N 46°46' W 092°06'0 0.0
2018-Apr-14 14:00N 46°46' W 092°06'0 0.0
2018-Apr-14 13:30N 46°46' W 092°06'0 0.0
2018-Apr-14 13:00N 46°46' W 092°06'0 0.0
2018-Apr-14 12:30N 46°46' W 092°06'0 0.0
2018-Apr-14 12:00N 46°46' W 092°06'0 0.0
2018-Apr-14 11:30N 46°46' W 092°06'0 0.0
2018-Apr-14 11:00N 46°46' W 092°06'0 0.0
2018-Apr-14 10:30N 46°46' W 092°06'0 0.0
2018-Apr-14 10:00N 46°46' W 092°06'0 0.0
2018-Apr-14 09:31N 46°46' W 092°06'0 0.0
2018-Apr-14 09:00N 46°46' W 092°06'0 0.0
2018-Apr-14 08:30N 46°46' W 092°06'0 0.0
2018-Apr-14 08:00N 46°46' W 092°06'0 0.0
2018-Apr-14 07:30N 46°46' W 092°06'0 0.0
2018-Apr-14 07:00N 46°46' W 092°06'0 0.0
2018-Apr-14 06:31N 46°46' W 092°06'0 0.0
2018-Apr-14 06:00N 46°46' W 092°06'0 0.0
2018-Apr-14 05:30N 46°46' W 092°06'0 0.0
2018-Apr-14 05:00N 46°46' W 092°06'0 0.0
2018-Apr-14 04:30N 46°46' W 092°06'0 0.0
2018-Apr-14 04:00N 46°46' W 092°06'0 0.0
2018-Apr-14 03:30N 46°46' W 092°06'0 0.0
2018-Apr-14 02:59N 46°46' W 092°06'0 0.0
2018-Apr-14 02:31N 46°46' W 092°06'0 0.0
2018-Apr-14 02:00N 46°46' W 092°06'0 0.0
2018-Apr-14 01:30N 46°46' W 092°06'0 0.0
2018-Apr-14 01:00N 46°46' W 092°06'0 0.0
2018-Apr-14 00:29N 46°46' W 092°06'0 0.0
2018-Apr-14 00:00N 46°46' W 092°06'0 0.0
2018-Apr-13 23:30N 46°46' W 092°06'0 0.0
2018-Apr-13 23:00N 46°46' W 092°06'0 0.0
2018-Apr-13 22:30N 46°46' W 092°06'0 0.0
2018-Apr-13 22:00N 46°46' W 092°06'0 0.0
2018-Apr-13 21:30N 46°46' W 092°06'0 0.0
2018-Apr-13 20:59N 46°46' W 092°06'0 0.0
2018-Apr-13 20:30N 46°46' W 092°06'0 0.0
2018-Apr-13 20:00N 46°46' W 092°06'0 0.0
2018-Apr-13 19:30N 46°46' W 092°06'0 0.0
2018-Apr-13 18:59N 46°46' W 092°06'0 0.0
2018-Apr-13 18:27N 46°46' W 092°06'0 0.0
2018-Apr-13 18:00N 46°46' W 092°06'0 0.0
2018-Apr-13 17:30N 46°46' W 092°06'0 0.0
2018-Apr-13 17:00N 46°46' W 092°06'0 0.0
2018-Apr-13 16:30N 46°46' W 092°06'0 0.0
2018-Apr-13 16:00N 46°46' W 092°06'0 0.0
2018-Apr-13 15:30N 46°46' W 092°06'0 0.0
2018-Apr-13 15:00N 46°46' W 092°06'0 0.0
2018-Apr-13 14:30N 46°46' W 092°06'0 0.0
2018-Apr-13 14:00N 46°46' W 092°06'2266.7
2018-Apr-13 14:00N 46°48' W 092°06'2 5.0 050 / 241016.2 1.2-6.7
2018-Apr-13 13:30N 46°46' W 092°06'0 0.0
2018-Apr-13 13:01N 46°46' W 092°06'2141.9
2018-Apr-13 13:00N 46°48' W 092°06'2 3.7 040 / 151015.9 1.2-8.0
2018-Apr-13 12:30N 46°46' W 092°06'2 4.8
2018-Apr-13 12:00N 46°47' W 092°03'2220.9
2018-Apr-13 12:00N 46°48' W 092°06'713.5 060 / 81015.2 1.7-6.4
2018-Apr-13 11:30N 46°49' W 091°57'612.6
2018-Apr-13 11:00N 46°52' W 091°48'2214.4
2018-Apr-13 11:00N 46°54' W 091°48'612.1 070 / 131013.9 1.1-3.6
2018-Apr-13 10:30N 46°54' W 091°39'612.7
2018-Apr-13 10:00N 46°56' W 091°31'2767.3
2018-Apr-13 10:00N 46°54' W 091°30'714.4 060 / 141013.0 2.1-4.0
2018-Apr-13 09:30N 46°59' W 091°22'713.9
2018-Apr-13 09:00N 47°00' W 091°12'1413.7 040 / 151012.4 1.9-3.7
2018-Apr-13 08:00N 47°06' W 090°54'1413.6 040 / 111012.9 1.6 1.3
2018-Apr-13 07:00N 47°12' W 090°36'13111.9 350 / 121012.5 2.0 1.9
2018-Apr-12 20:00N 47°24' W 087°24'1212.2 330 / 181007.5 0.9 1.0
2018-Apr-12 19:00N 47°24' W 087°06'1010.1 340 / 121007.5 0.3 0.5
2018-Apr-12 18:00N 47°18' W 086°54'1413.6 060 / 61006.9 0.5 0.6
2018-Apr-12 17:00N 47°12' W 086°36'2512.6 030 / 111006.6 0.4 0.6
2018-Apr-12 15:00N 47°06' W 086°00'1717.2 030 / 111005.9 -0.7-0.6
2018-Apr-12 14:00N 46°54' W 085°42'1212.3 110 / 41006.0 -0.6-0.6
2018-Apr-12 13:00N 46°54' W 085°24'8 8.2 120 / 121006.3 -0.3-0.5
2018-Apr-12 12:00N 46°54' W 085°12'1413.7 120 / 141007.2 -0.2-0.5
2018-Apr-12 11:00N 46°48' W 084°54'7 7.3 130 / 81008.4 0.4 0.1
2018-Apr-12 10:00N 46°42' W 084°48'7 7.3 140 / 91009.1 0.3-0.9
2018-Apr-12 09:00N 46°36' W 084°42'1514.6 140 / 131010.9 0.8-1.9
2018-Apr-12 08:00N 46°24' W 084°30'7 7.3 100 / 71012.4 -2.7-2.9
2018-Apr-12 07:00N 46°30' W 084°24'4 4.1 100 / 31011.8 -2.5-2.7
2018-Apr-12 06:00N 46°30' W 084°18'0 0.0 110 / 11012.8 -2.1-2.2
2018-Apr-12 05:00N 46°30' W 084°18'0 0.0 090 / 31013.5 -1.1-1.3
2018-Apr-12 04:00N 46°30' W 084°18'7 7.3 130 / 31014.5 -0.9-1.6
2018-Apr-12 03:00N 46°24' W 084°12'0 0.0 350 / 41014.1 0.3-4.0
2018-Apr-12 01:00N 46°24' W 084°12'7 7.3 190 / 51013.8 1.6-4.6
2018-Apr-12 00:00N 46°18' W 084°06'6 6.0 010 / 31013.4 3.2-4.1
2018-Apr-11 23:00N 46°12' W 084°06'22 7.3 350 / 151013.4 3.9-4.8
2018-Apr-11 20:00N 45°54' W 083°48'914.4 330 / 201012.6 2.7 1.7
2018-Apr-11 19:22N 45°46' W 083°42'512.0
2018-Apr-11 19:00N 45°43' W 083°38'611.4
2018-Apr-11 18:30N 45°39' W 083°32'510.3
2018-Apr-11 17:59N 45°35' W 083°26'3712.4
2018-Apr-11 15:00N 45°06' W 082°54'1212.0 210 / 141012.6 1.3 1.1
2018-Apr-11 14:00N 44°54' W 082°54'1212.0 200 / 161013.3 1.4 0.9
2018-Apr-11 13:00N 44°42' W 082°54'1312.7 200 / 111014.2 1.5 1.3
2018-Apr-11 12:00N 44°30' W 082°48'1312.7 220 / 151014.6 1.6 1.3
2018-Apr-11 11:00N 44°18' W 082°42'1312.7 200 / 141015.0 1.7-1.5
2018-Apr-11 10:00N 44°06' W 082°36'1312.8 220 / 181015.6 2.0-3.2
2018-Apr-11 09:00N 43°54' W 082°30'1212.0 200 / 151016.7 1.7-3.6
2018-Apr-11 08:00N 43°42' W 082°30'1212.0 200 / 111017.4 1.3-3.6
2018-Apr-11 07:00N 43°30' W 082°30'1312.8 230 / 121018.8 1.6-4.9
2018-Apr-11 06:00N 43°18' W 082°24'1212.0 230 / 101019.6 2.1-3.9
2018-Apr-11 05:00N 43°06' W 082°24'1212.0 230 / 101019.9 2.5-3.8
2018-Apr-11 04:00N 42°54' W 082°24'19 9.3 210 / 101020.2 3.6-3.0
2018-Apr-11 02:00N 42°36' W 082°30'7 7.5 200 / 101020.5 4.2-1.5
2018-Apr-11 01:00N 42°30' W 082°36'1110.7 210 / 111020.3 4.6 0.4
2018-Apr-11 00:00N 42°24' W 082°48'7 7.5 230 / 101020.5 5.8-3.3
2018-Apr-10 23:00N 42°18' W 082°54'   260 / 101020.8 8.3-6.3

Dump ship's entire track history